»·PEaware :: EJA550 KEGE-KJAC

EJA550 :: KEGE-KJAC

FLIGHT INFORMATION

Flight Status: Arrived
Operator:
Netjets Aviation
More flights by this operator :: More flights under this callsign
Pilot: Isaac R. (8401)
Aircraft: CESSNA 550 CITATION 2/S2/BRAVO
(C550)
More flights by this aircraft type
Origin: KEGE Eagle Co Regl
United States
Destination: KJAC Jackson Hole
United States
More flights between these airports :: More routes between these airports
Route: +BEVVR1 SPRKT BPI V328 JAC
File this flight plan on PilotEdge
Remarks: CSTP29B
Altitude:
(Current/Filed)
36,000ft
Speed:
(Current/Filed)
470kts
Departed: 27-Jan-19 03:01 PM
Arrived: 27-Jan-19 04:15 PM
Distance/Time
Traveled:
293nm/1:14
Distance/Time
To Go:
Arrived

Flight Plot

Page will automatically refresh every two minutes.

Flight plan parsing failed; only flown route is shown


Map Options




Map Legend


Flown Route
Filed Route
Departure Airport
Arrival Airport
Navaid (VOR, NDB)
Fix

Horizontal Profiles

Position Reports

Time Latitude Longitude Heading Altitude Ground
Speed
27-Jan-19 14:43 39.641715 -106.907762 261 6518ft 0kts
27-Jan-19 14:44 39.641715 -106.907762 261 6518ft 0kts
27-Jan-19 14:45 39.641715 -106.907762 261 6518ft 0kts
27-Jan-19 14:46 39.641715 -106.907762 261 6518ft 0kts
27-Jan-19 14:47 39.641715 -106.907762 261 6518ft 0kts
27-Jan-19 14:48 39.641715 -106.907762 261 6518ft 0kts
27-Jan-19 14:49 39.641715 -106.907762 261 6518ft 0kts
27-Jan-19 14:50 39.641715 -106.907762 261 6518ft 0kts
27-Jan-19 14:51 39.641715 -106.907762 261 6518ft 0kts
27-Jan-19 14:52 39.641715 -106.907762 261 6518ft 0kts
27-Jan-19 14:53 39.641715 -106.907762 261 6518ft 0kts
27-Jan-19 14:54 39.641715 -106.907762 261 6518ft 0kts
27-Jan-19 14:55 39.641715 -106.907763 261 6518ft 0kts
27-Jan-19 14:56 39.641741 -106.908050 327 6518ft 0kts
27-Jan-19 14:57 39.642689 -106.906185 62 6518ft 8kts
27-Jan-19 14:58 39.643346 -106.900497 74 6518ft 13kts
27-Jan-19 14:59 39.644414 -106.901002 261 6518ft 20kts
27-Jan-19 15:00 39.639134 -106.936919 234 7239ft 135kts
27-Jan-19 15:01 39.606972 -106.968359 215 9143ft 160kts
27-Jan-19 15:02 39.579817 -107.011224 278 11205ft 174kts
27-Jan-19 15:03 39.591377 -107.073150 318 13331ft 196kts
27-Jan-19 15:04 39.637950 -107.119380 343 15303ft 228kts
27-Jan-19 15:05 39.701980 -107.093609 15 17465ft 252kts
27-Jan-19 15:06 39.759339 -107.111615 304 19557ft 238kts
27-Jan-19 15:07 39.788547 -107.189186 299 21665ft 237kts
27-Jan-19 15:08 39.822152 -107.260366 304 23751ft 225kts
27-Jan-19 15:09 39.852966 -107.327062 302 25862ft 203kts
27-Jan-19 15:10 39.883957 -107.390205 304 27105ft 209kts
27-Jan-19 15:11 39.919741 -107.449759 321 28318ft 213kts
27-Jan-19 15:12 39.969575 -107.493395 320 29410ft 217kts
27-Jan-19 15:13 40.018811 -107.539551 319 30424ft 219kts
27-Jan-19 15:14 40.068298 -107.586689 319 31364ft 221kts
27-Jan-19 15:15 40.118391 -107.634618 319 32228ft 223kts
27-Jan-19 15:16 40.168710 -107.682877 319 32984ft 226kts
27-Jan-19 15:17 40.219626 -107.731805 319 33684ft 228kts
27-Jan-19 15:18 40.270813 -107.781095 319 34310ft 229kts
27-Jan-19 15:19 40.322726 -107.831171 320 34851ft 232kts
27-Jan-19 15:20 40.374925 -107.881624 320 35361ft 234kts
27-Jan-19 15:21 40.427845 -107.932878 320 35800ft 237kts
27-Jan-19 15:22 40.480838 -107.984308 320 36167ft 241kts
27-Jan-19 15:23 40.536587 -108.038524 320 36173ft 259kts
27-Jan-19 15:24 40.597074 -108.097502 321 36164ft 281kts
27-Jan-19 15:25 40.661885 -108.160819 321 36141ft 298kts
27-Jan-19 15:26 40.729914 -108.227441 321 36135ft 309kts
27-Jan-19 15:27 40.799662 -108.295932 321 36129ft 316kts
27-Jan-19 15:28 40.870662 -108.365843 321 36121ft 321kts
27-Jan-19 15:29 40.942846 -108.437107 321 36111ft 324kts
27-Jan-19 15:30 41.015345 -108.508905 321 36102ft 327kts
27-Jan-19 15:31 41.088227 -108.581279 321 36092ft 328kts
27-Jan-19 15:32 41.161592 -108.654334 321 36082ft 329kts
27-Jan-19 15:33 41.234840 -108.727507 322 36077ft 330kts
27-Jan-19 15:34 41.308353 -108.801128 322 36074ft 330kts
27-Jan-19 15:35 41.381716 -108.874822 321 36065ft 331kts
27-Jan-19 15:36 41.455104 -108.948731 322 36057ft 331kts
27-Jan-19 15:37 41.528657 -109.023064 322 36055ft 331kts
27-Jan-19 15:38 41.602030 -109.097430 322 36053ft 331kts
27-Jan-19 15:39 41.675655 -109.172255 322 36054ft 332kts
27-Jan-19 15:40 41.749031 -109.247049 322 36055ft 332kts
27-Jan-19 15:41 41.822469 -109.322128 322 36056ft 332kts
27-Jan-19 15:42 41.896163 -109.397695 322 36059ft 333kts
27-Jan-19 15:44 41.969609 -109.473231 323 36061ft 333kts
27-Jan-19 15:45 42.043377 -109.549325 323 36062ft 333kts
27-Jan-19 15:46 42.116757 -109.625249 323 36065ft 333kts
27-Jan-19 15:47 42.190395 -109.701684 322 36065ft 334kts
27-Jan-19 15:48 42.263856 -109.778141 322 36072ft 334kts
27-Jan-19 15:49 42.337948 -109.855496 322 35452ft 345kts
27-Jan-19 15:50 42.414089 -109.935297 323 33957ft 346kts
27-Jan-19 15:51 42.490248 -110.015340 322 32462ft 348kts
27-Jan-19 15:52 42.567197 -110.095776 325 30961ft 349kts
27-Jan-19 15:53 42.654426 -110.153282 334 29469ft 350kts
27-Jan-19 15:54 42.741759 -110.203323 340 27969ft 337kts
27-Jan-19 15:55 42.835537 -110.218941 351 26472ft 340kts
27-Jan-19 15:56 42.930477 -110.225442 351 24976ft 343kts
27-Jan-19 15:57 43.026747 -110.230506 351 23474ft 347kts
27-Jan-19 15:58 43.123233 -110.234661 351 21979ft 339kts
27-Jan-19 15:59 43.213110 -110.236738 351 20468ft 310kts
27-Jan-19 16:00 43.295360 -110.247277 345 18964ft 285kts
27-Jan-19 16:01 43.373027 -110.260335 345 17603ft 276kts
27-Jan-19 16:01 43.435918 -110.270714 345 16929ft 270kts
27-Jan-19 16:03 43.522423 -110.284938 344 16010ft 268kts
27-Jan-19 16:04 43.596782 -110.297187 344 15212ft 270kts
27-Jan-19 16:05 43.671857 -110.309576 345 14412ft 272kts
27-Jan-19 16:05 43.734590 -110.319952 344 13747ft 273kts
27-Jan-19 16:06 43.803433 -110.352464 310 12947ft 256kts
27-Jan-19 16:08 43.819422 -110.460313 268 12020ft 251kts
27-Jan-19 16:08 43.811526 -110.539654 254 11348ft 254kts
27-Jan-19 16:09 43.780297 -110.622555 232 10264ft 237kts
27-Jan-19 16:10 43.727883 -110.678560 208 8867ft 235kts
27-Jan-19 16:11 43.672373 -110.704497 207 7670ft 154kts
27-Jan-19 16:12 43.636246 -110.723449 202 6941ft 143kts
27-Jan-19 16:13 43.603154 -110.739894 202 6454ft 57kts
27-Jan-19 16:14 43.599991 -110.739723 18 6454ft 3kts
27-Jan-19 16:15 43.602602 -110.738446 18 6454ft 9kts
27-Jan-19 16:16 43.602738 -110.737527 108 6454ft 0kts
27-Jan-19 16:17 43.602738 -110.737527 108 6454ft 0kts
27-Jan-19 16:18 43.602738 -110.737527 108 6454ft 0kts
27-Jan-19 16:19 43.602738 -110.737527 108 6454ft 0kts
27-Jan-19 16:20 43.602738 -110.737527 108 6454ft 0kts

Navigation Log

Ident Type
Flight plan parsing failed, navigation log unavailable